Time;durP1;ratioP1;P1;durP2;ratioP2;P2;SDS_P1;SDS_P2;PMS_P1;PMS_P2;Temp;Humidity;BMP_temperature;BMP_pressure;BME280_temperature;BME280_humidity;BME280_pressure;Samples;Min_cycle;Max_cycle;Signal;HPM_P1;HPM_P2
2022/11/11 00:01:23;;;;;;;54.20;33.25;;;;;;;;;;6240612;28;20053;-66
2022/11/11 00:04:25;;;;;;;52.50;32.72;;;;;;;;;;6238991;28;20187;-65
2022/11/11 00:07:28;;;;;;;53.30;32.83;;;;;;;;;;6239215;28;20076;-64
2022/11/11 00:10:30;;;;;;;53.50;32.90;;;;;;;;;;6241430;28;20268;-66
2022/11/11 00:13:33;;;;;;;51.70;32.58;;;;;;;;;;6239863;28;20206;-66
2022/11/11 00:26:36;;;;;;;50.85;33.70;;;;;;;;;;6240803;28;20064;-65
2022/11/11 00:29:38;;;;;;;54.38;32.65;;;;;;;;;;6238346;28;20309;-66
2022/11/11 00:32:40;;;;;;;54.67;33.53;;;;;;;;;;6236485;28;20376;-66
2022/11/11 00:35:54;;;;;;;51.72;33.47;;;;;;;;;;6239093;28;20057;-65
2022/11/11 00:38:57;;;;;;;56.55;33.65;;;;;;;;;;6237003;28;20054;-65
2022/11/11 00:41:58;;;;;;;51.42;33.72;;;;;;;;;;6235834;28;20046;-64
2022/11/11 00:45:00;;;;;;;53.38;32.72;;;;;;;;;;6235373;28;20299;-67
2022/11/11 00:51:20;;;;;;;54.05;34.40;;;;;;;;;;6240089;28;20116;-66
2022/11/11 00:54:23;;;;;;;56.22;34.55;;;;;;;;;;6236874;28;20399;-67
2022/11/11 00:57:25;;;;;;;51.28;32.80;;;;;;;;;;6240438;28;20058;-66
2022/11/11 01:00:26;;;;;;;51.00;32.55;;;;;;;;;;6242542;28;21606;-68
2022/11/11 01:03:28;;;;;;;43.50;30.75;;;;;;;;;;6238433;28;20111;-66
2022/11/11 01:06:30;;;;;;;47.13;30.77;;;;;;;;;;6241141;28;20379;-67
2022/11/11 01:09:33;;;;;;;46.65;29.90;;;;;;;;;;6241935;28;20061;-66
2022/11/11 01:12:34;;;;;;;45.88;29.88;;;;;;;;;;6239001;28;20057;-67
2022/11/11 01:15:36;;;;;;;45.38;30.08;;;;;;;;;;6238238;28;20211;-66
2022/11/11 01:18:37;;;;;;;46.35;30.00;;;;;;;;;;6241091;28;20060;-67
2022/11/11 01:21:39;;;;;;;44.25;29.85;;;;;;;;;;6239852;28;20057;-67
2022/11/11 01:24:42;;;;;;;43.70;28.80;;;;;;;;;;6237513;28;20277;-67
2022/11/11 01:27:44;;;;;;;44.30;30.45;;;;;;;;;;6236110;28;20056;-66
2022/11/11 01:30:45;;;;;;;43.65;28.60;;;;;;;;;;6237986;28;20057;-67
2022/11/11 01:33:47;;;;;;;42.00;28.88;;;;;;;;;;6236192;28;20060;-67
2022/11/11 01:36:49;;;;;;;45.05;29.02;;;;;;;;;;6236614;28;20091;-67
2022/11/11 01:39:52;;;;;;;40.80;28.98;;;;;;;;;;6240327;28;20175;-67
2022/11/11 01:42:54;;;;;;;41.38;29.13;;;;;;;;;;6243142;28;20351;-67
2022/11/11 01:45:58;;;;;;;42.38;28.20;;;;;;;;;;6240880;28;20049;-66
2022/11/11 01:52:31;;;;;;;41.47;27.15;;;;;;;;;;6242279;28;20054;-66
2022/11/11 01:55:34;;;;;;;42.03;26.80;;;;;;;;;;6238902;28;20057;-67
2022/11/11 01:58:36;;;;;;;41.97;28.10;;;;;;;;;;6239514;28;20049;-66
2022/11/11 02:01:38;;;;;;;40.35;26.52;;;;;;;;;;6240164;28;20108;-67
2022/11/11 02:08:02;;;;;;;38.88;26.02;;;;;;;;;;6240065;28;20325;-67
2022/11/11 02:11:09;;;;;;;38.55;26.70;;;;;;;;;;6245533;28;20054;-67
2022/11/11 02:17:31;;;;;;;39.25;26.52;;;;;;;;;;6246478;28;20073;-66
2022/11/11 02:20:35;;;;;;;39.75;27.23;;;;;;;;;;6247463;28;20061;-67
2022/11/11 02:23:41;;;;;;;45.83;28.23;;;;;;;;;;6246372;28;20053;-66
2022/11/11 02:26:44;;;;;;;37.38;26.70;;;;;;;;;;6244411;28;20037;-66
2022/11/11 02:29:47;;;;;;;36.17;26.13;;;;;;;;;;6252075;28;20107;-67
2022/11/11 02:32:51;;;;;;;37.47;25.85;;;;;;;;;;6246819;28;20058;-67
2022/11/11 02:35:56;;;;;;;37.10;25.73;;;;;;;;;;6245713;28;20119;-67
2022/11/11 02:38:57;;;;;;;38.30;25.30;;;;;;;;;;6249046;28;20112;-67
2022/11/11 02:42:03;;;;;;;38.08;25.77;;;;;;;;;;6246004;28;20425;-67
2022/11/11 02:45:06;;;;;;;34.28;24.48;;;;;;;;;;6244294;28;20049;-65
2022/11/11 02:48:07;;;;;;;36.00;25.42;;;;;;;;;;6246685;28;20349;-68
2022/11/11 02:51:09;;;;;;;38.90;25.55;;;;;;;;;;6246251;28;20049;-67
2022/11/11 02:54:11;;;;;;;35.88;25.17;;;;;;;;;;6240860;28;20041;-67
2022/11/11 02:57:14;;;;;;;34.45;24.35;;;;;;;;;;6242314;28;20060;-67
2022/11/11 03:00:17;;;;;;;37.03;24.43;;;;;;;;;;6238824;28;20053;-67
2022/11/11 03:03:18;;;;;;;34.50;24.77;;;;;;;;;;6248731;28;20300;-67
2022/11/11 03:06:20;;;;;;;34.03;23.92;;;;;;;;;;6238392;28;20060;-67
2022/11/11 03:09:22;;;;;;;33.92;24.23;;;;;;;;;;6245791;28;20095;-67
2022/11/11 03:12:25;;;;;;;32.15;23.63;;;;;;;;;;6241204;28;20042;-67
2022/11/11 03:15:26;;;;;;;32.30;23.27;;;;;;;;;;6240458;28;20101;-66
2022/11/11 03:18:27;;;;;;;33.80;24.05;;;;;;;;;;6243842;28;20107;-66
2022/11/11 03:21:29;;;;;;;32.80;23.17;;;;;;;;;;6238447;28;20049;-67
2022/11/11 03:27:47;;;;;;;34.58;23.58;;;;;;;;;;6239406;28;20334;-67
2022/11/11 03:30:49;;;;;;;32.80;23.38;;;;;;;;;;6243084;28;20188;-67
2022/11/11 03:33:51;;;;;;;31.88;23.35;;;;;;;;;;6240746;28;20192;-67
2022/11/11 03:40:12;;;;;;;32.45;23.23;;;;;;;;;;6238933;28;20070;-67
2022/11/11 03:43:17;;;;;;;29.77;23.55;;;;;;;;;;6238800;28;20072;-67
2022/11/11 03:46:18;;;;;;;27.85;22.58;;;;;;;;;;6239618;28;20092;-67
2022/11/11 03:49:20;;;;;;;28.48;21.25;;;;;;;;;;6242288;28;20049;-67
2022/11/11 03:52:21;;;;;;;31.95;22.52;;;;;;;;;;6238586;28;20061;-67
2022/11/11 03:55:23;;;;;;;32.20;22.70;;;;;;;;;;6237062;28;20057;-66
2022/11/11 03:58:26;;;;;;;31.45;21.60;;;;;;;;;;6241511;28;20115;-65
2022/11/11 04:11:24;;;;;;;28.67;21.55;;;;;;;;;;6238922;28;20073;-65
2022/11/11 04:17:46;;;;;;;31.83;22.42;;;;;;;;;;6241717;28;20045;-66
2022/11/11 04:27:23;;;;;;;31.95;23.10;;;;;;;;;;6239434;28;20041;-66
2022/11/11 04:30:25;;;;;;;32.42;22.80;;;;;;;;;;6239628;28;20100;-67
2022/11/11 04:33:26;;;;;;;37.42;24.83;;;;;;;;;;6236654;28;20099;-67
2022/11/11 04:36:28;;;;;;;36.50;22.95;;;;;;;;;;6241521;28;20426;-66
2022/11/11 04:42:48;;;;;;;32.53;22.98;;;;;;;;;;6237776;28;20385;-67
2022/11/11 04:45:50;;;;;;;30.77;23.13;;;;;;;;;;6240098;28;20122;-66
2022/11/11 04:48:52;;;;;;;35.28;23.98;;;;;;;;;;6237229;28;20110;-67
2022/11/11 04:58:34;;;;;;;33.45;23.35;;;;;;;;;;6240315;28;20046;-67
2022/11/11 05:04:56;;;;;;;35.53;24.73;;;;;;;;;;6236589;28;20245;-67
2022/11/11 05:11:18;;;;;;;34.67;23.67;;;;;;;;;;6240102;28;20053;-65
2022/11/11 05:21:21;;;;;;;32.58;22.75;;;;;;;;;;6237949;28;20061;-67
2022/11/11 05:27:42;;;;;;;33.72;24.10;;;;;;;;;;6237479;28;20226;-67
2022/11/11 05:30:44;;;;;;;33.42;22.52;;;;;;;;;;6238625;28;20061;-67
2022/11/11 05:33:47;;;;;;;36.35;24.00;;;;;;;;;;6235564;28;20148;-65
2022/11/11 05:36:48;;;;;;;34.25;24.05;;;;;;;;;;6236137;28;20103;-67
2022/11/11 05:39:50;;;;;;;33.92;23.15;;;;;;;;;;6234395;28;20061;-69
2022/11/11 05:42:51;;;;;;;32.10;22.52;;;;;;;;;;6240516;28;20053;-69
2022/11/11 05:45:53;;;;;;;35.22;23.60;;;;;;;;;;6241109;28;20061;-69
2022/11/11 05:52:27;;;;;;;32.45;22.55;;;;;;;;;;6199711;28;20254;-66
2022/11/11 05:55:28;;;;;;;35.20;23.40;;;;;;;;;;6215362;28;20054;-68
2022/11/11 05:58:30;;;;;;;33.35;22.65;;;;;;;;;;6211163;28;20054;-68
2022/11/11 06:01:34;;;;;;;31.42;22.27;;;;;;;;;;6211134;28;20046;-67
2022/11/11 06:04:37;;;;;;;;;;;;;;;;;;6210324;28;20058;-65
2022/11/11 06:07:39;;;;;;;27.08;19.95;;;;;;;;;;6213845;28;19944;-67
2022/11/11 06:10:41;;;;;;;29.20;19.92;;;;;;;;;;6214934;28;20042;-66
2022/11/11 06:13:42;;;;;;;27.25;18.42;;;;;;;;;;6212340;28;20502;-66
2022/11/11 06:16:44;;;;;;;25.05;18.70;;;;;;;;;;6215031;28;20183;-66
2022/11/11 06:19:47;;;;;;;24.80;17.48;;;;;;;;;;6215536;28;20117;-66
2022/11/11 06:22:58;;;;;;;26.17;18.38;;;;;;;;;;6214046;28;20053;-66
2022/11/11 06:26:15;;;;;;;25.25;18.08;;;;;;;;;;6223918;28;20058;-66
2022/11/11 06:29:17;;;;;;;25.27;19.05;;;;;;;;;;6243434;28;20046;-65
2022/11/11 06:32:18;;;;;;;22.48;17.35;;;;;;;;;;6248275;28;20054;-66
2022/11/11 06:35:21;;;;;;;22.05;17.38;;;;;;;;;;6241756;28;20049;-66
2022/11/11 06:38:23;;;;;;;23.02;16.88;;;;;;;;;;6240082;28;20107;-66
2022/11/11 06:41:25;;;;;;;23.25;17.30;;;;;;;;;;6242293;28;20072;-63
2022/11/11 06:44:26;;;;;;;127.63;24.08;;;;;;;;;;6240140;28;20115;-66
2022/11/11 06:47:28;;;;;;;49.70;18.85;;;;;;;;;;6244153;28;20057;-66
2022/11/11 06:50:32;;;;;;;43.28;17.92;;;;;;;;;;6241907;28;20160;-65
2022/11/11 06:53:35;;;;;;;220.00;29.42;;;;;;;;;;6239619;28;20053;-66
2022/11/11 06:56:37;;;;;;;227.18;35.35;;;;;;;;;;6243712;28;20246;-66
2022/11/11 06:59:38;;;;;;;52.35;19.23;;;;;;;;;;6240471;28;20058;-63
2022/11/11 07:02:40;;;;;;;247.85;35.92;;;;;;;;;;6239095;28;20045;-66
2022/11/11 07:05:43;;;;;;;295.27;39.72;;;;;;;;;;6241710;28;20104;-65
2022/11/11 07:08:45;;;;;;;116.60;25.42;;;;;;;;;;6239615;28;20079;-65
2022/11/11 07:11:46;;;;;;;50.85;18.13;;;;;;;;;;6240920;28;20100;-65
2022/11/11 07:14:48;;;;;;;27.98;15.35;;;;;;;;;;6240701;28;20084;-64
2022/11/11 07:17:50;;;;;;;18.63;12.55;;;;;;;;;;6243009;28;20158;-65
2022/11/11 07:20:53;;;;;;;21.50;12.88;;;;;;;;;;6241118;28;20049;-66
2022/11/11 07:23:54;;;;;;;15.23;11.20;;;;;;;;;;6238752;28;20340;-65
2022/11/11 07:26:58;;;;;;;15.63;11.80;;;;;;;;;;6236781;28;20077;-65
2022/11/11 07:29:59;;;;;;;15.95;12.05;;;;;;;;;;6235353;28;20118;-67
2022/11/11 07:33:01;;;;;;;12.68;10.95;;;;;;;;;;6242650;28;20072;-67
2022/11/11 07:36:04;;;;;;;15.45;11.63;;;;;;;;;;6235097;28;20053;-65
2022/11/11 07:39:06;;;;;;;16.73;11.77;;;;;;;;;;6239527;28;20335;-67
2022/11/11 07:42:07;;;;;;;15.50;12.55;;;;;;;;;;6236634;28;20065;-63
2022/11/11 07:45:10;;;;;;;14.02;11.70;;;;;;;;;;6238923;28;20053;-61
2022/11/11 07:48:12;;;;;;;16.10;11.98;;;;;;;;;;6240041;28;20057;-65
2022/11/11 07:51:15;;;;;;;14.55;11.32;;;;;;;;;;6239342;28;20241;-65
2022/11/11 07:54:17;;;;;;;13.27;10.50;;;;;;;;;;6237237;28;20053;-64
2022/11/11 07:57:18;;;;;;;15.30;10.90;;;;;;;;;;6241215;28;20060;-65
2022/11/11 08:00:20;;;;;;;14.55;11.60;;;;;;;;;;6238632;28;20058;-64
2022/11/11 08:03:22;;;;;;;13.50;10.48;;;;;;;;;;6237430;28;20053;-66
2022/11/11 08:06:25;;;;;;;18.85;11.27;;;;;;;;;;6239079;28;20316;-65
2022/11/11 08:09:26;;;;;;;14.63;10.87;;;;;;;;;;6241082;28;20054;-65
2022/11/11 08:15:47;;;;;;;13.93;10.40;;;;;;;;;;6239027;28;20045;-65
2022/11/11 08:18:49;;;;;;;12.13;10.25;;;;;;;;;;6238414;28;20049;-65
2022/11/11 08:21:53;;;;;;;13.60;10.68;;;;;;;;;;6236672;28;20053;-65
2022/11/11 08:24:54;;;;;;;;;;;;;;;;;;6238207;28;20045;-64
2022/11/11 08:28:00;;;;;;;15.82;12.13;;;;;;;;;;6235014;28;19925;-66
2022/11/11 08:31:02;;;;;;;13.23;9.90;;;;;;;;;;6239051;28;20324;-65
2022/11/11 08:34:04;;;;;;;12.10;10.23;;;;;;;;;;6240186;28;20053;-66
2022/11/11 08:37:07;;;;;;;14.98;10.43;;;;;;;;;;6239078;28;20058;-68
2022/11/11 08:40:09;;;;;;;12.45;10.00;;;;;;;;;;6241760;28;20112;-67
2022/11/11 08:43:11;;;;;;;11.80;9.55;;;;;;;;;;6241067;28;20156;-66
2022/11/11 08:46:12;;;;;;;12.50;9.93;;;;;;;;;;6240800;28;20086;-65
2022/11/11 08:49:14;;;;;;;10.93;9.13;;;;;;;;;;6239417;28;20155;-65
2022/11/11 08:52:17;;;;;;;12.95;10.73;;;;;;;;;;6236765;28;20117;-65
2022/11/11 08:55:19;;;;;;;15.63;10.30;;;;;;;;;;6243034;28;20299;-65
2022/11/11 08:58:21;;;;;;;12.77;9.68;;;;;;;;;;6244483;28;20449;-65
2022/11/11 09:01:22;;;;;;;12.77;9.48;;;;;;;;;;6240106;28;20330;-65
2022/11/11 09:04:24;;;;;;;11.20;9.20;;;;;;;;;;6241166;28;20071;-67
2022/11/11 09:07:27;;;;;;;11.50;8.15;;;;;;;;;;6243250;28;20045;-65
2022/11/11 09:10:29;;;;;;;;;;;;;;;;;;6244104;28;20304;-66
2022/11/11 09:13:30;;;;;;;9.77;7.43;;;;;;;;;;6237069;28;19924;-65
2022/11/11 09:16:32;;;;;;;8.18;7.10;;;;;;;;;;6238001;28;20049;-65
2022/11/11 09:19:34;;;;;;;9.45;7.32;;;;;;;;;;6243402;28;20045;-65
2022/11/11 09:22:43;;;;;;;9.02;7.03;;;;;;;;;;6238644;28;20444;-66
2022/11/11 09:25:45;;;;;;;9.05;5.68;;;;;;;;;;6242346;28;20321;-65
2022/11/11 09:28:46;;;;;;;10.13;6.38;;;;;;;;;;6245028;28;20050;-66
2022/11/11 09:31:48;;;;;;;8.80;5.88;;;;;;;;;;6240176;28;20123;-66
2022/11/11 09:34:54;;;;;;;7.25;5.28;;;;;;;;;;6236118;28;20050;-65
2022/11/11 09:37:58;;;;;;;27.35;6.65;;;;;;;;;;6239786;28;20063;-65
2022/11/11 09:41:09;;;;;;;61.17;9.65;;;;;;;;;;6239140;28;20112;-65
2022/11/11 09:44:22;;;;;;;52.00;9.20;;;;;;;;;;6243143;28;20049;-65
2022/11/11 09:47:30;;;;;;;22.48;6.32;;;;;;;;;;6236917;28;20046;-66
2022/11/11 09:50:34;;;;;;;15.45;5.15;;;;;;;;;;6236540;28;20053;-65
2022/11/11 09:53:39;;;;;;;8.75;4.30;;;;;;;;;;6235509;28;20054;-66
2022/11/11 09:56:41;;;;;;;5.47;4.10;;;;;;;;;;6237771;28;20344;-64
2022/11/11 09:59:47;;;;;;;7.47;3.60;;;;;;;;;;6238047;28;20057;-65
2022/11/11 10:02:51;;;;;;;5.20;3.78;;;;;;;;;;6245357;28;20061;-67
2022/11/11 10:05:58;;;;;;;4.10;3.70;;;;;;;;;;6247796;28;20060;-68
2022/11/11 10:09:03;;;;;;;5.22;3.63;;;;;;;;;;6243106;28;20222;-66
2022/11/11 10:12:09;;;;;;;4.47;3.20;;;;;;;;;;6242022;28;20049;-65
2022/11/11 10:15:12;;;;;;;4.00;3.30;;;;;;;;;;6245916;28;20325;-65
2022/11/11 10:18:22;;;;;;;3.70;2.97;;;;;;;;;;6241712;28;20108;-63
2022/11/11 10:21:30;;;;;;;5.28;3.45;;;;;;;;;;6243843;28;20053;-66
2022/11/11 10:24:35;;;;;;;9.02;4.40;;;;;;;;;;6248704;28;20041;-63
2022/11/11 10:27:39;;;;;;;6.53;4.57;;;;;;;;;;6249716;28;20069;-67
2022/11/11 10:30:42;;;;;;;7.15;4.55;;;;;;;;;;6250438;28;20119;-66
2022/11/11 10:33:49;;;;;;;5.03;4.22;;;;;;;;;;6244101;28;20088;-67
2022/11/11 10:36:53;;;;;;;5.82;4.30;;;;;;;;;;6246006;28;20053;-65
2022/11/11 10:40:05;;;;;;;5.63;4.22;;;;;;;;;;6246745;28;20163;-66
2022/11/11 10:43:17;;;;;;;5.45;4.13;;;;;;;;;;6249275;28;20057;-65
2022/11/11 10:46:22;;;;;;;21.33;5.82;;;;;;;;;;6244631;28;20054;-66
2022/11/11 10:49:26;;;;;;;164.93;20.10;;;;;;;;;;6252398;28;20112;-65
2022/11/11 10:52:32;;;;;;;30.25;7.78;;;;;;;;;;6244282;28;20131;-66
2022/11/11 10:55:40;;;;;;;13.88;5.07;;;;;;;;;;6244587;28;20058;-65
2022/11/11 10:58:47;;;;;;;9.75;4.68;;;;;;;;;;6242319;28;20046;-66
2022/11/11 11:01:54;;;;;;;5.03;3.88;;;;;;;;;;6243697;28;20045;-66
2022/11/11 11:04:58;;;;;;;6.55;4.30;;;;;;;;;;6242572;28;20122;-66
2022/11/11 11:08:06;;;;;;;5.18;3.67;;;;;;;;;;6244591;28;20061;-66
2022/11/11 11:11:13;;;;;;;5.03;3.47;;;;;;;;;;6238120;28;20276;-66
2022/11/11 11:14:20;;;;;;;6.13;3.97;;;;;;;;;;6242908;28;20227;-65
2022/11/11 11:17:25;;;;;;;4.85;3.90;;;;;;;;;;6241264;28;20374;-67
2022/11/11 11:20:26;;;;;;;6.25;4.00;;;;;;;;;;6236860;28;20103;-66
2022/11/11 11:23:39;;;;;;;3.50;3.20;;;;;;;;;;6241741;28;20106;-66
2022/11/11 11:26:47;;;;;;;4.43;3.92;;;;;;;;;;6239305;28;20294;-66
2022/11/11 11:29:48;;;;;;;4.90;3.88;;;;;;;;;;6240306;28;20061;-67
2022/11/11 11:32:58;;;;;;;5.28;3.75;;;;;;;;;;6242422;28;20045;-66
2022/11/11 11:36:15;;;;;;;4.30;3.70;;;;;;;;;;6242286;28;20073;-66
2022/11/11 11:39:32;;;;;;;5.22;3.13;;;;;;;;;;6241223;28;20120;-68
2022/11/11 11:42:35;;;;;;;3.83;3.05;;;;;;;;;;6237930;28;20108;-67
2022/11/11 11:45:37;;;;;;;3.97;2.67;;;;;;;;;;6241312;28;20053;-66
2022/11/11 11:48:53;;;;;;;3.67;3.33;;;;;;;;;;6239322;28;20290;-66
2022/11/11 11:52:02;;;;;;;3.95;3.00;;;;;;;;;;6238882;28;20099;-66
2022/11/11 11:55:07;;;;;;;3.60;3.22;;;;;;;;;;6240433;28;20060;-66
2022/11/11 11:58:30;;;;;;;3.22;2.92;;;;;;;;;;6239958;28;20053;-65
2022/11/11 12:01:37;;;;;;;3.25;2.95;;;;;;;;;;6242743;28;20073;-66
2022/11/11 12:05:00;;;;;;;3.88;3.47;;;;;;;;;;6239770;28;20057;-67
2022/11/11 12:08:12;;;;;;;3.40;3.10;;;;;;;;;;6237824;28;20057;-65
2022/11/11 12:11:18;;;;;;;3.20;2.65;;;;;;;;;;6239255;28;20053;-66
2022/11/11 12:14:41;;;;;;;4.60;3.42;;;;;;;;;;6238511;28;20042;-65
2022/11/11 12:17:51;;;;;;;4.85;3.83;;;;;;;;;;6240069;28;20053;-66
2022/11/11 12:20:57;;;;;;;6.47;3.63;;;;;;;;;;6240071;28;20046;-66
2022/11/11 12:24:04;;;;;;;3.38;3.05;;;;;;;;;;6239351;28;20277;-67
2022/11/11 12:27:14;;;;;;;3.53;3.05;;;;;;;;;;6239010;28;20054;-67
2022/11/11 12:30:19;;;;;;;3.58;3.28;;;;;;;;;;6235636;28;20045;-67
2022/11/11 12:33:39;;;;;;;4.72;4.28;;;;;;;;;;6239454;28;20050;-68
2022/11/11 12:36:44;;;;;;;5.65;4.00;;;;;;;;;;6238535;28;20096;-69
2022/11/11 12:40:01;;;;;;;6.32;4.47;;;;;;;;;;6241371;28;20068;-67
2022/11/11 12:43:11;;;;;;;6.72;4.63;;;;;;;;;;6239902;28;20052;-66
2022/11/11 12:46:21;;;;;;;7.57;4.88;;;;;;;;;;6235036;28;20052;-66
2022/11/11 12:49:40;;;;;;;5.68;4.53;;;;;;;;;;6235476;28;20123;-66
2022/11/11 12:52:53;;;;;;;7.30;4.60;;;;;;;;;;6239488;28;20053;-69
2022/11/11 12:56:01;;;;;;;5.07;4.55;;;;;;;;;;6238569;28;20119;-69
2022/11/11 12:59:08;;;;;;;5.15;4.55;;;;;;;;;;6236739;28;20068;-67
2022/11/11 13:02:25;;;;;;;4.72;4.22;;;;;;;;;;6237582;28;20163;-69
2022/11/11 13:05:29;;;;;;;6.65;5.78;;;;;;;;;;6235804;28;20045;-67
2022/11/11 13:08:51;;;;;;;8.52;5.93;;;;;;;;;;6239164;28;20057;-66
2022/11/11 13:12:01;;;;;;;8.20;6.60;;;;;;;;;;6231323;28;20100;-68
2022/11/11 13:15:11;;;;;;;7.35;6.43;;;;;;;;;;6236445;28;20060;-67
2022/11/11 13:18:19;;;;;;;9.45;7.25;;;;;;;;;;6237760;28;20057;-67
2022/11/11 13:21:24;;;;;;;9.13;6.50;;;;;;;;;;6238981;28;20337;-68
2022/11/11 13:24:27;;;;;;;8.23;7.32;;;;;;;;;;6236383;28;20057;-68
2022/11/11 13:27:34;;;;;;;10.77;7.87;;;;;;;;;;6236436;28;20045;-67
2022/11/11 13:30:41;;;;;;;8.02;6.75;;;;;;;;;;6237525;28;20333;-67
2022/11/11 13:33:47;;;;;;;10.43;7.78;;;;;;;;;;6237029;28;20057;-68
2022/11/11 13:36:52;;;;;;;9.18;6.90;;;;;;;;;;6240931;28;20111;-69
2022/11/11 13:39:58;;;;;;;8.50;7.20;;;;;;;;;;6242286;28;20127;-67
2022/11/11 13:43:00;;;;;;;9.02;6.85;;;;;;;;;;6247002;28;20053;-70
2022/11/11 13:46:04;;;;;;;8.15;6.70;;;;;;;;;;6244529;28;20265;-70
2022/11/11 13:49:09;;;;;;;8.10;6.05;;;;;;;;;;6246265;28;20045;-70
2022/11/11 13:52:21;;;;;;;7.60;5.95;;;;;;;;;;6245805;28;20333;-68
2022/11/11 13:55:29;;;;;;;8.60;6.63;;;;;;;;;;6243774;28;20046;-69
2022/11/11 13:58:32;;;;;;;9.20;7.95;;;;;;;;;;6234284;28;20061;-70
2022/11/11 14:01:35;;;;;;;9.63;7.97;;;;;;;;;;6242877;28;20049;-70
2022/11/11 14:05:10;;;;;;;12.43;8.30;;;;;;;;;;6231088;28;20116;-68
2022/11/11 14:08:50;;;;;;;11.82;7.68;;;;;;;;;;6243009;28;20056;-68
2022/11/11 14:12:20;;;;;;;8.85;7.05;;;;;;;;;;6241765;28;20061;-71
2022/11/11 14:15:40;;;;;;;11.63;8.55;;;;;;;;;;6238652;28;20053;-68
2022/11/11 14:18:43;;;;;;;9.57;8.00;;;;;;;;;;6240902;28;20052;-68
2022/11/11 14:21:49;;;;;;;11.70;8.93;;;;;;;;;;6240831;28;20063;-68
2022/11/11 14:24:51;;;;;;;11.90;8.80;;;;;;;;;;6241659;28;20337;-67
2022/11/11 14:27:53;;;;;;;14.15;9.80;;;;;;;;;;6247788;28;20351;-69
2022/11/11 14:30:56;;;;;;;12.32;10.27;;;;;;;;;;6245283;28;20052;-67
2022/11/11 14:34:01;;;;;;;18.58;10.82;;;;;;;;;;6240639;28;20061;-69
2022/11/11 14:37:13;;;;;;;14.63;10.98;;;;;;;;;;6239770;28;20053;-69
2022/11/11 14:40:24;;;;;;;16.20;12.90;;;;;;;;;;6245870;28;20104;-67
2022/11/11 14:43:39;;;;;;;17.73;12.13;;;;;;;;;;6245397;28;20449;-68
2022/11/11 14:47:27;;;;;;;16.80;11.95;;;;;;;;;;6235351;28;20049;-66
2022/11/11 14:50:43;;;;;;;15.13;12.65;;;;;;;;;;6224043;28;20049;-67
2022/11/11 14:53:46;;;;;;;23.25;14.57;;;;;;;;;;6239320;28;20064;-68
2022/11/11 14:56:54;;;;;;;17.95;14.38;;;;;;;;;;6242073;28;20325;-68
2022/11/11 14:59:58;;;;;;;18.70;14.15;;;;;;;;;;6238818;28;20087;-68
2022/11/11 15:03:02;;;;;;;17.83;14.20;;;;;;;;;;6241581;28;20058;-69
2022/11/11 15:06:06;;;;;;;19.90;15.35;;;;;;;;;;6240314;28;20049;-64
2022/11/11 15:09:31;;;;;;;19.60;16.00;;;;;;;;;;6240931;28;20053;-69
2022/11/11 15:12:43;;;;;;;20.75;16.10;;;;;;;;;;6241567;28;20103;-69
2022/11/11 15:15:54;;;;;;;21.90;16.85;;;;;;;;;;6236633;28;20133;-68
2022/11/11 15:19:10;;;;;;;19.85;15.52;;;;;;;;;;6239065;28;20118;-63
2022/11/11 15:22:24;;;;;;;22.25;15.48;;;;;;;;;;6238889;28;20061;-65
2022/11/11 15:25:34;;;;;;;20.25;15.90;;;;;;;;;;6234340;28;20338;-69
2022/11/11 15:28:53;;;;;;;21.48;15.70;;;;;;;;;;6239358;28;20053;-66
2022/11/11 15:32:03;;;;;;;27.73;17.45;;;;;;;;;;6240763;28;20121;-69
2022/11/11 15:35:21;;;;;;;23.30;16.08;;;;;;;;;;6239851;28;20132;-68
2022/11/11 15:38:23;;;;;;;23.02;16.83;;;;;;;;;;6239684;28;20280;-68
2022/11/11 15:41:26;;;;;;;21.75;16.45;;;;;;;;;;6238448;28;20053;-66
2022/11/11 15:44:30;;;;;;;22.40;17.13;;;;;;;;;;6236205;28;20046;-68
2022/11/11 15:47:36;;;;;;;;;;;;;;;;;;6232224;28;20089;-67
2022/11/11 15:50:37;;;;;;;27.58;17.30;;;;;;;;;;6231122;28;19983;-67
2022/11/11 15:53:39;;;;;;;23.45;17.83;;;;;;;;;;6237765;28;20061;-69
2022/11/11 15:56:41;;;;;;;61.47;42.00;;;;;;;;;;6244134;28;20042;-64
2022/11/11 15:59:43;;;;;;;93.70;55.67;;;;;;;;;;6240409;28;20049;-67
2022/11/11 16:02:46;;;;;;;191.77;106.10;;;;;;;;;;6240860;28;20054;-70
2022/11/11 16:05:48;;;;;;;46.15;30.25;;;;;;;;;;6237428;28;20076;-68
2022/11/11 16:08:52;;;;;;;29.42;19.65;;;;;;;;;;6237435;28;20057;-70
2022/11/11 16:11:55;;;;;;;28.77;19.20;;;;;;;;;;6239696;28;20090;-71
2022/11/11 16:14:58;;;;;;;24.80;18.52;;;;;;;;;;6235222;28;20057;-70
2022/11/11 16:18:04;;;;;;;24.90;18.63;;;;;;;;;;6241765;28;20061;-70
2022/11/11 16:21:08;;;;;;;23.67;17.90;;;;;;;;;;6239660;28;20049;-69
2022/11/11 16:24:20;;;;;;;24.63;18.23;;;;;;;;;;6239313;28;20057;-69
2022/11/11 16:27:25;;;;;;;23.80;18.10;;;;;;;;;;6237841;28;20073;-69
2022/11/11 16:30:32;;;;;;;22.13;16.73;;;;;;;;;;6238256;28;20104;-70
2022/11/11 16:33:35;;;;;;;26.30;18.58;;;;;;;;;;6237122;28;20053;-70
2022/11/11 16:36:36;;;;;;;25.77;19.00;;;;;;;;;;6239243;28;20068;-70
2022/11/11 16:39:38;;;;;;;25.35;19.38;;;;;;;;;;6234610;28;20053;-70
2022/11/11 16:42:40;;;;;;;26.58;19.42;;;;;;;;;;6235500;28;20038;-70
2022/11/11 16:45:47;;;;;;;27.67;20.20;;;;;;;;;;6237164;28;20091;-70
2022/11/11 16:48:52;;;;;;;27.42;20.75;;;;;;;;;;6236482;28;20121;-70
2022/11/11 16:51:55;;;;;;;28.50;20.98;;;;;;;;;;6241146;28;20045;-70
2022/11/11 16:54:59;;;;;;;29.30;20.23;;;;;;;;;;6240076;28;20065;-70
2022/11/11 16:58:03;;;;;;;25.27;19.85;;;;;;;;;;6246271;28;20244;-70
2022/11/11 17:01:05;;;;;;;24.95;19.30;;;;;;;;;;6238322;28;20049;-71
2022/11/11 17:04:08;;;;;;;27.73;20.38;;;;;;;;;;6242777;28;20053;-72
2022/11/11 17:07:28;;;;;;;34.03;21.53;;;;;;;;;;6240052;28;20103;-73
2022/11/11 17:10:38;;;;;;;27.92;21.30;;;;;;;;;;6241866;28;21115;-68
2022/11/11 17:13:40;;;;;;;29.25;21.48;;;;;;;;;;6244208;28;20095;-70
2022/11/11 17:16:41;;;;;;;31.27;22.27;;;;;;;;;;6244292;28;20054;-69
2022/11/11 17:19:44;;;;;;;31.48;23.00;;;;;;;;;;6241437;28;20085;-68
2022/11/11 17:22:48;;;;;;;35.50;23.57;;;;;;;;;;6239392;28;20265;-68
2022/11/11 17:25:54;;;;;;;30.75;22.05;;;;;;;;;;6243208;28;20248;-67
2022/11/11 17:28:56;;;;;;;32.30;23.95;;;;;;;;;;6240284;28;20151;-68
2022/11/11 17:31:58;;;;;;;30.08;22.23;;;;;;;;;;6240484;28;20209;-66
2022/11/11 17:35:01;;;;;;;31.85;23.30;;;;;;;;;;6236612;28;20053;-66
2022/11/11 17:38:03;;;;;;;31.88;22.42;;;;;;;;;;6244229;28;20245;-66
2022/11/11 17:41:05;;;;;;;33.58;23.92;;;;;;;;;;6242904;28;20123;-67
2022/11/11 17:44:06;;;;;;;32.80;23.63;;;;;;;;;;6241327;28;20669;-67
2022/11/11 17:47:08;;;;;;;32.50;23.27;;;;;;;;;;6245654;28;20057;-67
2022/11/11 17:50:12;;;;;;;33.92;23.10;;;;;;;;;;6239595;28;20065;-67
2022/11/11 17:53:13;;;;;;;32.95;22.52;;;;;;;;;;6241516;28;20072;-67
2022/11/11 17:56:15;;;;;;;32.15;23.48;;;;;;;;;;6242996;28;20045;-68
2022/11/11 17:59:16;;;;;;;34.03;23.98;;;;;;;;;;6237419;28;20056;-63
2022/11/11 18:02:19;;;;;;;33.05;23.60;;;;;;;;;;6239979;28;20058;-70
2022/11/11 18:05:22;;;;;;;32.80;23.38;;;;;;;;;;6235570;28;20057;-67
2022/11/11 18:08:24;;;;;;;31.25;22.42;;;;;;;;;;6239527;28;20045;-70
2022/11/11 18:11:25;;;;;;;34.65;23.95;;;;;;;;;;6237806;28;20364;-65
2022/11/11 18:14:28;;;;;;;31.42;21.70;;;;;;;;;;6240680;28;20041;-69
2022/11/11 18:17:29;;;;;;;32.22;23.70;;;;;;;;;;6239930;28;20057;-69
2022/11/11 18:20:32;;;;;;;33.08;23.65;;;;;;;;;;6238067;28;20058;-70
2022/11/11 18:23:36;;;;;;;35.10;24.77;;;;;;;;;;6242517;28;20341;-71
2022/11/11 18:26:38;;;;;;;33.35;23.42;;;;;;;;;;6240907;28;20380;-68
2022/11/11 18:29:41;;;;;;;34.47;23.70;;;;;;;;;;6245233;28;20057;-67
2022/11/11 18:32:44;;;;;;;31.02;22.60;;;;;;;;;;6251446;28;20140;-68
2022/11/11 18:35:47;;;;;;;34.13;22.85;;;;;;;;;;6248335;28;20049;-67
2022/11/11 18:38:49;;;;;;;38.67;25.13;;;;;;;;;;6247440;28;20328;-70
2022/11/11 18:41:50;;;;;;;31.85;22.55;;;;;;;;;;6248700;28;20468;-68
2022/11/11 18:44:52;;;;;;;32.72;23.67;;;;;;;;;;6250264;28;20053;-71
2022/11/11 18:47:54;;;;;;;30.83;22.25;;;;;;;;;;6246719;28;20049;-74
2022/11/11 18:50:57;;;;;;;35.75;24.33;;;;;;;;;;6238213;28;20053;-72
2022/11/11 18:53:58;;;;;;;36.55;25.08;;;;;;;;;;6246239;28;20069;-73
2022/11/11 18:57:00;;;;;;;33.15;23.95;;;;;;;;;;6249127;28;20100;-72
2022/11/11 19:00:02;;;;;;;33.63;25.13;;;;;;;;;;6244440;28;21155;-68
2022/11/11 19:03:04;;;;;;;36.45;24.80;;;;;;;;;;6242424;28;20073;-68
2022/11/11 19:06:09;;;;;;;36.65;23.73;;;;;;;;;;6244570;28;20095;-69
2022/11/11 19:09:12;;;;;;;37.08;24.50;;;;;;;;;;6247020;28;20049;-68
2022/11/11 19:12:13;;;;;;;34.50;25.02;;;;;;;;;;6247752;28;20046;-68
2022/11/11 19:15:15;;;;;;;37.90;25.83;;;;;;;;;;6243633;28;20052;-68
2022/11/11 19:18:17;;;;;;;35.15;24.60;;;;;;;;;;6247467;28;20054;-68
2022/11/11 19:21:21;;;;;;;38.30;26.92;;;;;;;;;;6248981;28;20094;-68
2022/11/11 19:24:23;;;;;;;34.53;24.63;;;;;;;;;;6246772;28;20049;-67
2022/11/11 19:27:25;;;;;;;38.10;25.85;;;;;;;;;;6251776;28;20041;-68
2022/11/11 19:30:26;;;;;;;36.22;24.83;;;;;;;;;;6248339;28;20053;-68